TimeCDT,TemperatureF,Dew PointF,Humidity,Sea Level PressureIn,VisibilityMPH,Wind Direction,Wind SpeedMPH,Gust SpeedMPH,PrecipitationIn,Events,Conditions,WindDirDegrees,DateUTC
12:51 AM,66.9,64.0,90,30.06,10.0,ESE,6.9,-,N/A,,Clear,120,2013-04-23 05:51:00
1:51 AM,66.9,64.0,90,30.05,10.0,ESE,6.9,-,N/A,,Clear,120,2013-04-23 06:51:00
2:51 AM,66.0,64.0,93,30.04,10.0,SE,6.9,-,N/A,,Clear,130,2013-04-23 07:51:00
3:51 AM,66.0,63.0,90,30.04,10.0,ESE,5.8,-,N/A,,Clear,110,2013-04-23 08:51:00
4:51 AM,66.0,63.0,90,30.04,9.0,ESE,5.8,-,N/A,,Clear,120,2013-04-23 09:51:00
5:51 AM,64.9,63.0,93,30.04,9.0,ESE,4.6,-,N/A,,Clear,110,2013-04-23 10:51:00
6:51 AM,64.9,63.0,93,30.06,8.0,East,4.6,-,N/A,,Scattered Clouds,100,2013-04-23 11:51:00
7:51 AM,69.1,64.9,87,30.07,8.0,ESE,6.9,-,N/A,,Clear,120,2013-04-23 12:51:00
8:51 AM,71.1,66.0,84,30.08,10.0,ESE,9.2,-,N/A,,Overcast,120,2013-04-23 13:51:00
9:51 AM,73.9,66.0,76,30.09,10.0,SE,10.4,-,N/A,,Partly Cloudy,130,2013-04-23 14:51:00
10:51 AM,75.0,66.0,73,30.10,10.0,ESE,11.5,-,N/A,,Clear,120,2013-04-23 15:51:00
11:51 AM,75.9,66.0,71,30.09,10.0,SE,11.5,18.4,N/A,,Clear,130,2013-04-23 16:51:00
12:51 PM,77.0,66.9,71,30.07,10.0,SE,12.7,-,N/A,,Clear,140,2013-04-23 17:51:00
1:51 PM,77.0,66.9,71,30.06,10.0,ESE,11.5,-,N/A,,Clear,120,2013-04-23 18:51:00
2:51 PM,75.9,66.9,74,30.05,10.0,SE,8.1,-,N/A,,Mostly Cloudy,130,2013-04-23 19:51:00
3:51 PM,75.9,66.9,74,30.04,10.0,ESE,9.2,-,N/A,,Overcast,110,2013-04-23 20:51:00
4:35 PM,75.2,68.0,78,30.03,10.0,ESE,6.9,-,N/A,,Mostly Cloudy,110,2013-04-23 21:35:00
4:51 PM,75.0,68.0,79,30.02,10.0,ESE,9.2,-,N/A,,Scattered Clouds,110,2013-04-23 21:51:00
5:51 PM,73.9,68.0,82,30.02,8.0,ESE,9.2,-,N/A,,Mostly Cloudy,110,2013-04-23 22:51:00
6:51 PM,72.0,68.0,87,30.03,7.0,ESE,10.4,-,N/A,,Clear,110,2013-04-23 23:51:00
7:12 PM,71.6,66.2,83,30.03,7.0,ESE,9.2,-,N/A,,Mostly Cloudy,110,2013-04-24 00:12:00
7:38 PM,71.6,66.2,83,30.04,8.0,ESE,9.2,-,N/A,,Mostly Cloudy,110,2013-04-24 00:38:00
7:51 PM,71.1,66.9,87,30.04,9.0,ESE,8.1,-,N/A,,Scattered Clouds,110,2013-04-24 00:51:00
8:00 PM,71.6,68.0,88,30.04,10.0,ESE,8.1,-,N/A,,Mostly Cloudy,110,2013-04-24 01:00:00
8:11 PM,71.6,66.2,83,30.04,10.0,ESE,6.9,-,N/A,,Mostly Cloudy,110,2013-04-24 01:11:00
8:40 PM,69.8,66.2,88,30.05,9.0,ESE,6.9,-,N/A,,Scattered Clouds,110,2013-04-24 01:40:00
8:51 PM,70.0,66.9,90,30.05,9.0,ESE,9.2,-,N/A,,Clear,120,2013-04-24 01:51:00
9:51 PM,69.1,66.9,93,30.06,9.0,ESE,9.2,-,N/A,,Clear,110,2013-04-24 02:51:00
10:49 PM,69.8,68.0,94,30.06,9.0,ESE,8.1,-,N/A,,Mostly Cloudy,120,2013-04-24 03:49:00
10:51 PM,70.0,68.0,93,30.06,9.0,ESE,9.2,-,N/A,,Mostly Cloudy,120,2013-04-24 03:51:00
11:40 PM,69.8,68.0,94,30.05,8.0,ESE,8.1,-,N/A,,Mostly Cloudy,120,2013-04-24 04:40:00
11:51 PM,70.0,68.0,93,30.05,8.0,ESE,6.9,-,N/A,,Mostly Cloudy,120,2013-04-24 04:51:00